createdAt,value
2023-01-28T00:00:13.479Z,5.18
2023-01-28T00:01:07.213Z,5.33
2023-01-28T00:01:58.646Z,5.63
2023-01-28T00:02:50.224Z,5.37
2023-01-28T00:03:42.228Z,5.77
2023-01-28T00:04:34.311Z,5.57
2023-01-28T00:05:25.925Z,5.18
2023-01-28T00:06:18.918Z,5.04
2023-01-28T00:07:10.570Z,5.82
2023-01-28T00:08:02.327Z,5.81
2023-01-28T00:08:55.820Z,5.64
2023-01-28T00:09:47.268Z,5.45
2023-01-28T00:10:39.720Z,5.92
2023-01-28T00:11:33.658Z,5.15
2023-01-28T00:12:25.774Z,5.16
2023-01-28T00:13:17.408Z,5.25
2023-01-28T00:14:12.177Z,5.84
2023-01-28T00:15:04.256Z,5.53
2023-01-28T00:15:57.793Z,5.49
2023-01-28T00:16:49.359Z,5.93
2023-01-28T00:17:40.946Z,6.32
2023-01-28T00:18:33.266Z,6.04
2023-01-28T00:19:24.695Z,6.18
2023-01-28T00:20:16.680Z,6.76
2023-01-28T00:21:12.823Z,6.59
2023-01-28T00:22:04.544Z,6.85
2023-01-28T00:22:55.999Z,6.74
2023-01-28T00:23:52.867Z,6.45
2023-01-28T00:24:44.679Z,7.07
2023-01-28T00:25:36.529Z,6.80
2023-01-28T00:26:28.225Z,7.26
2023-01-28T00:27:19.724Z,7.36
2023-01-28T00:28:11.391Z,7.40
2023-01-28T00:29:03.942Z,7.21
2023-01-28T00:29:55.454Z,7.25
2023-01-28T00:30:47.036Z,6.87
2023-01-28T00:31:41.431Z,7.00
2023-01-28T00:32:33.292Z,6.77
2023-01-28T00:33:25.599Z,6.77
2023-01-28T00:34:17.339Z,6.33
2023-01-28T00:35:09.318Z,6.60
2023-01-28T00:36:02.641Z,6.35
2023-01-28T00:37:00.095Z,6.94
2023-01-28T00:37:51.662Z,6.86
2023-01-28T00:38:45.056Z,7.01
2023-01-28T00:39:38.166Z,6.89
2023-01-28T00:40:30.975Z,7.05
2023-01-28T00:41:25.476Z,7.37
2023-01-28T00:42:17.168Z,7.31
2023-01-28T00:43:08.874Z,6.74
2023-01-28T00:44:01.510Z,6.85
2023-01-28T00:44:54.104Z,6.51
2023-01-28T00:45:50.143Z,7.18
2023-01-28T00:46:41.857Z,7.15
2023-01-28T00:47:33.303Z,7.50
2023-01-28T00:48:24.758Z,7.52
2023-01-28T00:49:16.221Z,6.91
2023-01-28T00:50:08.604Z,7.20
2023-01-28T00:51:00.297Z,7.55
2023-01-28T00:51:51.896Z,6.95
2023-01-28T00:52:44.495Z,7.23
2023-01-28T00:53:36.794Z,7.35
2023-01-28T00:54:28.402Z,6.60
2023-01-28T00:55:20.028Z,6.96
2023-01-28T00:56:17.944Z,7.25
2023-01-28T00:57:09.561Z,6.72
2023-01-28T00:58:01.085Z,6.32
2023-01-28T00:58:52.987Z,6.75
2023-01-28T00:59:44.779Z,6.88
2023-01-28T01:00:36.352Z,6.85
2023-01-28T01:01:28.202Z,7.10
2023-01-28T01:02:19.782Z,7.00
2023-01-28T01:03:11.499Z,7.27
2023-01-28T01:04:03.363Z,6.53
2023-01-28T01:04:58.448Z,6.97
2023-01-28T01:05:51.065Z,6.99
2023-01-28T01:06:42.806Z,7.14
2023-01-28T01:07:43.422Z,6.88
2023-01-28T01:08:35.766Z,6.53
2023-01-28T01:09:27.569Z,7.09
2023-01-28T01:10:20.245Z,6.72
2023-01-28T01:11:12.157Z,8.26
2023-01-28T01:12:03.733Z,11.63
2023-01-28T01:12:58.206Z,13.33
2023-01-28T01:13:57.701Z,11.42
2023-01-28T01:14:49.449Z,15.10
2023-01-28T01:15:43.312Z,13.63
2023-01-28T01:16:36.458Z,14.24
2023-01-28T01:17:31.693Z,12.16
2023-01-28T01:18:23.356Z,10.45
2023-01-28T01:19:15.044Z,10.28
2023-01-28T01:20:13.145Z,8.90
2023-01-28T01:21:10.437Z,8.49
2023-01-28T01:22:03.360Z,8.28
2023-01-28T01:22:56.423Z,8.07
2023-01-28T01:23:48.796Z,8.55
2023-01-28T01:24:40.269Z,8.40
2023-01-28T01:25:31.683Z,8.17
2023-01-28T01:26:24.018Z,7.79
2023-01-28T01:27:15.724Z,8.18
2023-01-28T01:28:07.214Z,7.19
2023-01-28T01:28:58.690Z,7.42
2023-01-28T01:29:51.378Z,8.08
2023-01-28T01:30:43.124Z,8.24
2023-01-28T01:31:34.848Z,8.14
2023-01-28T01:32:31.148Z,7.77
2023-01-28T01:33:22.719Z,8.06
2023-01-28T01:34:14.587Z,7.96
2023-01-28T01:35:08.117Z,8.13
2023-01-28T01:36:00.135Z,8.29
2023-01-28T01:36:51.816Z,9.22
2023-01-28T01:37:44.969Z,8.48
2023-01-28T01:38:36.924Z,8.17
2023-01-28T01:39:29.428Z,8.50
2023-01-28T01:40:21.024Z,7.83
2023-01-28T01:41:32.874Z,7.36
2023-01-28T01:42:28.157Z,7.87
2023-01-28T01:43:22.706Z,7.84
2023-01-28T01:44:51.909Z,8.16
2023-01-28T01:45:56.349Z,8.39
2023-01-28T01:46:51.979Z,8.16
2023-01-28T01:48:01.512Z,8.32
2023-01-28T01:48:56.225Z,8.19
2023-01-28T01:49:48.075Z,8.08
2023-01-28T01:50:51.308Z,8.68
2023-01-28T01:51:46.256Z,8.01
2023-01-28T01:52:38.301Z,7.51
2023-01-28T01:53:31.521Z,8.35
2023-01-28T01:54:29.983Z,8.56
2023-01-28T01:55:27.361Z,8.33
2023-01-28T01:56:24.099Z,8.84
2023-01-28T01:57:24.630Z,9.27
2023-01-28T01:58:21.692Z,9.53
2023-01-28T01:59:22.160Z,9.37
2023-01-28T02:00:13.902Z,8.94
2023-01-28T02:01:07.305Z,9.29
2023-01-28T02:02:03.890Z,9.07
2023-01-28T02:02:56.680Z,9.96
2023-01-28T02:04:09.024Z,10.19
2023-01-28T02:05:00.626Z,9.35
2023-01-28T02:05:53.348Z,9.55
2023-01-28T02:06:46.908Z,9.59
2023-01-28T02:07:45.896Z,9.73
2023-01-28T02:08:37.342Z,10.33
2023-01-28T02:09:36.189Z,10.38
2023-01-28T02:10:27.771Z,11.49
2023-01-28T02:11:19.277Z,10.45
2023-01-28T02:12:22.753Z,11.36
2023-01-28T02:13:19.192Z,10.49
2023-01-28T02:14:14.519Z,10.26
2023-01-28T02:15:14.389Z,9.60
2023-01-28T02:16:08.322Z,9.50
2023-01-28T02:17:02.335Z,9.31
2023-01-28T02:17:53.983Z,9.53
2023-01-28T02:18:45.715Z,10.57
2023-01-28T02:19:44.240Z,9.40
2023-01-28T02:20:50.904Z,10.11
2023-01-28T02:22:04.012Z,9.93
2023-01-28T02:23:27.890Z,9.26
2023-01-28T02:24:35.489Z,9.10
2023-01-28T02:25:57.082Z,8.97
2023-01-28T02:27:39.360Z,9.37
2023-01-28T02:28:46.182Z,9.87
2023-01-28T02:30:17.981Z,9.58
2023-01-28T02:31:39.417Z,9.46
2023-01-28T02:32:37.339Z,9.77
2023-01-28T02:33:40.211Z,10.31
2023-01-28T02:34:47.005Z,10.55
2023-01-28T02:35:49.850Z,9.19
2023-01-28T02:36:54.049Z,10.38
2023-01-28T02:38:06.836Z,10.24
2023-01-28T02:39:05.600Z,10.34
2023-01-28T02:40:11.235Z,10.57
2023-01-28T02:41:13.856Z,11.12
2023-01-28T02:42:13.669Z,11.41
2023-01-28T02:43:05.510Z,12.51
2023-01-28T02:43:57.239Z,12.27
2023-01-28T02:44:48.792Z,12.14
2023-01-28T02:45:59.046Z,12.18
2023-01-28T02:47:11.498Z,12.18
2023-01-28T02:48:03.996Z,12.12
2023-01-28T02:48:56.019Z,12.16
2023-01-28T02:49:55.383Z,11.90
2023-01-28T02:51:07.735Z,12.16
2023-01-28T02:52:17.839Z,11.62
2023-01-28T02:53:37.443Z,12.00
2023-01-28T02:55:00.039Z,11.73
2023-01-28T02:56:22.627Z,10.90
2023-01-28T02:57:38.241Z,11.06
2023-01-28T02:58:59.204Z,12.30
2023-01-28T03:00:18.780Z,11.70
2023-01-28T03:01:28.540Z,12.06
2023-01-28T03:02:35.042Z,11.63
2023-01-28T03:03:40.560Z,11.51
2023-01-28T03:04:49.766Z,12.54
2023-01-28T03:06:08.575Z,11.64
2023-01-28T03:07:07.776Z,12.67
2023-01-28T03:08:00.339Z,12.91
2023-01-28T03:09:15.880Z,12.37
2023-01-28T03:10:17.745Z,11.68
2023-01-28T03:11:27.778Z,11.22
2023-01-28T03:12:43.996Z,11.54
2023-01-28T03:13:57.208Z,11.85
2023-01-28T03:15:19.611Z,12.73
2023-01-28T03:16:30.087Z,12.70
2023-01-28T03:17:53.699Z,11.79
2023-01-28T03:19:10.625Z,12.23
2023-01-28T03:20:21.322Z,11.33
2023-01-28T03:21:40.629Z,11.69
2023-01-28T03:22:58.430Z,12.10
2023-01-28T03:24:28.351Z,12.27
2023-01-28T03:25:43.688Z,11.94
2023-01-28T03:27:03.301Z,12.23
2023-01-28T03:28:24.533Z,12.43
2023-01-28T03:29:41.956Z,12.50
2023-01-28T03:31:06.647Z,12.77
2023-01-28T03:32:30.627Z,12.47
2023-01-28T03:33:44.833Z,12.23
2023-01-28T03:34:56.617Z,12.57
2023-01-28T03:36:08.147Z,12.64
2023-01-28T03:37:01.038Z,12.91
2023-01-28T03:38:23.651Z,13.31
2023-01-28T03:39:28.795Z,13.30
2023-01-28T03:40:23.043Z,12.49
2023-01-28T03:41:23.537Z,12.58
2023-01-28T03:42:16.634Z,13.49
2023-01-28T03:43:19.710Z,12.89
2023-01-28T03:44:31.026Z,12.90
2023-01-28T03:45:24.592Z,12.39
2023-01-28T03:46:18.422Z,12.12
2023-01-28T03:47:11.606Z,12.62
2023-01-28T03:48:03.570Z,12.50
2023-01-28T03:48:55.493Z,12.95
2023-01-28T03:49:49.454Z,12.80
2023-01-28T03:50:43.513Z,14.32
2023-01-28T03:51:35.718Z,13.70
2023-01-28T03:52:32.186Z,12.64
2023-01-28T03:53:53.573Z,12.51
2023-01-28T03:54:50.098Z,12.12
2023-01-28T03:55:46.837Z,12.26
2023-01-28T03:56:40.078Z,12.16
2023-01-28T03:57:32.315Z,11.62
2023-01-28T03:58:46.594Z,12.63
2023-01-28T03:59:39.838Z,12.30
2023-01-28T04:00:38.182Z,13.71
2023-01-28T04:01:30.506Z,13.44
2023-01-28T04:02:23.782Z,13.65
2023-01-28T04:03:20.748Z,13.23
2023-01-28T04:04:25.538Z,13.63
2023-01-28T04:05:20.608Z,13.46
2023-01-28T04:06:14.399Z,14.28
2023-01-28T04:07:35.400Z,13.80
2023-01-28T04:08:52.784Z,15.24
2023-01-28T04:09:55.176Z,15.45
2023-01-28T04:11:15.999Z,15.09
2023-01-28T04:12:10.783Z,15.07
2023-01-28T04:13:08.178Z,15.41
2023-01-28T04:13:59.846Z,15.88
2023-01-28T04:14:57.539Z,16.47
2023-01-28T04:15:52.462Z,16.56
2023-01-28T04:16:45.145Z,13.88
2023-01-28T04:17:37.566Z,12.53
2023-01-28T04:18:35.407Z,13.66
2023-01-28T04:19:28.464Z,13.32
2023-01-28T04:20:21.480Z,13.60
2023-01-28T04:21:14.539Z,14.26
2023-01-28T04:22:10.187Z,14.59
2023-01-28T04:23:02.412Z,13.67
2023-01-28T04:23:54.926Z,12.46
2023-01-28T04:24:46.457Z,13.76
2023-01-28T04:25:38.176Z,14.64
2023-01-28T04:26:32.914Z,14.68
2023-01-28T04:27:24.417Z,14.11
2023-01-28T04:28:16.031Z,15.78
2023-01-28T04:29:07.631Z,15.33
2023-01-28T04:30:01.066Z,13.51
2023-01-28T04:31:04.040Z,12.93
2023-01-28T04:32:02.695Z,13.03
2023-01-28T04:33:04.362Z,13.90
2023-01-28T04:34:25.290Z,14.54
2023-01-28T04:35:35.330Z,14.68
2023-01-28T04:36:32.576Z,14.95
2023-01-28T04:37:33.300Z,15.53
2023-01-28T04:38:47.116Z,15.48
2023-01-28T04:40:06.661Z,15.38
2023-01-28T04:41:21.554Z,16.08
2023-01-28T04:42:13.153Z,15.58
2023-01-28T04:43:28.185Z,16.10
2023-01-28T04:44:38.440Z,15.79
2023-01-28T04:45:44.134Z,16.51
2023-01-28T04:46:53.843Z,15.09
2023-01-28T04:47:59.338Z,14.30
2023-01-28T04:49:23.879Z,14.62
2023-01-28T04:50:34.424Z,14.36
2023-01-28T04:51:45.079Z,14.73
2023-01-28T04:52:56.971Z,15.98
2023-01-28T04:54:01.436Z,14.45
2023-01-28T04:54:58.720Z,14.32
2023-01-28T04:55:50.434Z,14.23
2023-01-28T04:56:42.001Z,14.94
2023-01-28T04:57:34.903Z,15.00
2023-01-28T04:58:27.492Z,14.85
2023-01-28T04:59:23.810Z,14.22
2023-01-28T05:00:17.108Z,14.61
2023-01-28T05:01:08.837Z,15.13
2023-01-28T05:02:00.909Z,13.82
2023-01-28T05:02:52.597Z,13.74
2023-01-28T05:03:44.442Z,14.51
2023-01-28T05:04:43.303Z,14.06
2023-01-28T05:05:41.941Z,14.13
2023-01-28T05:07:00.186Z,13.24
2023-01-28T05:07:58.063Z,13.51
2023-01-28T05:08:49.574Z,14.35
2023-01-28T05:09:41.202Z,13.88
2023-01-28T05:10:32.910Z,14.74
2023-01-28T05:11:25.132Z,13.52
2023-01-28T05:12:22.459Z,13.74
2023-01-28T05:13:14.381Z,14.52
2023-01-28T05:14:06.165Z,14.08
2023-01-28T05:15:05.470Z,14.15
2023-01-28T05:15:57.001Z,14.40
2023-01-28T05:16:50.194Z,14.55
2023-01-28T05:17:44.126Z,14.79
2023-01-28T05:18:37.960Z,15.16
2023-01-28T05:19:39.210Z,16.03
2023-01-28T05:20:36.959Z,16.70
2023-01-28T05:21:29.875Z,15.87
2023-01-28T05:22:26.803Z,16.63
2023-01-28T05:23:35.185Z,18.87
2023-01-28T05:24:27.214Z,17.35
2023-01-28T05:25:18.824Z,15.80
2023-01-28T05:26:11.126Z,15.09
2023-01-28T05:27:03.774Z,16.26
2023-01-28T05:27:55.340Z,17.07
2023-01-28T05:28:46.859Z,16.92
2023-01-28T05:29:38.445Z,16.73
2023-01-28T05:30:30.601Z,15.62
2023-01-28T05:31:22.076Z,16.05
2023-01-28T05:32:14.839Z,17.15
2023-01-28T05:33:06.944Z,17.74
2023-01-28T05:33:58.901Z,16.65
2023-01-28T05:34:50.516Z,17.56
2023-01-28T05:35:42.932Z,17.87
2023-01-28T05:36:34.832Z,16.47
2023-01-28T05:37:33.581Z,17.14
2023-01-28T05:38:25.548Z,20.78
2023-01-28T05:39:17.034Z,17.46
2023-01-28T05:40:09.515Z,16.75
2023-01-28T05:41:02.202Z,24.03
2023-01-28T05:41:53.808Z,26.94
2023-01-28T05:42:45.766Z,25.90
2023-01-28T05:44:06.495Z,26.73
2023-01-28T05:45:30.674Z,26.61
2023-01-28T05:46:29.945Z,27.35
2023-01-28T05:47:33.533Z,28.55
2023-01-28T05:48:30.470Z,29.54
2023-01-28T05:49:42.287Z,26.84
2023-01-28T05:50:47.294Z,21.85
2023-01-28T05:51:45.123Z,16.43
2023-01-28T05:52:40.448Z,14.15
2023-01-28T05:53:38.619Z,14.99
2023-01-28T05:54:31.156Z,15.44
2023-01-28T05:55:22.863Z,15.96
2023-01-28T05:56:14.419Z,17.41
2023-01-28T05:57:06.976Z,17.21
2023-01-28T05:57:58.819Z,19.38
2023-01-28T05:58:51.340Z,19.07
2023-01-28T05:59:43.070Z,17.18
2023-01-28T06:00:34.702Z,16.99
2023-01-28T06:01:29.026Z,18.36
2023-01-28T06:02:20.863Z,18.16
2023-01-28T06:03:14.708Z,18.54
2023-01-28T06:04:07.952Z,18.98
2023-01-28T06:05:00.578Z,19.06
2023-01-28T06:05:52.551Z,17.61
2023-01-28T06:06:44.046Z,18.31
2023-01-28T06:07:37.683Z,19.57
2023-01-28T06:08:30.069Z,17.53
2023-01-28T06:09:22.844Z,19.05
2023-01-28T06:10:19.659Z,19.55
2023-01-28T06:11:12.006Z,21.55
2023-01-28T06:12:04.143Z,20.58
2023-01-28T06:13:02.126Z,18.90
2023-01-28T06:13:53.799Z,18.52
2023-01-28T06:15:06.600Z,18.82
2023-01-28T06:16:16.382Z,16.13
2023-01-28T06:17:24.449Z,13.50
2023-01-28T06:18:32.766Z,12.93
2023-01-28T06:19:24.329Z,13.14
2023-01-28T06:20:17.427Z,12.60
2023-01-28T06:21:11.283Z,12.66
2023-01-28T06:22:02.982Z,13.35
2023-01-28T06:22:56.144Z,13.43
2023-01-28T06:23:47.816Z,12.93
2023-01-28T06:24:39.339Z,12.75
2023-01-28T06:25:31.094Z,13.37
2023-01-28T06:26:28.187Z,13.19
2023-01-28T06:27:21.954Z,12.53
2023-01-28T06:28:13.497Z,11.98
2023-01-28T06:29:05.290Z,11.27
2023-01-28T06:29:56.812Z,13.16
2023-01-28T06:30:49.940Z,13.98
2023-01-28T06:31:41.503Z,16.43
2023-01-28T06:32:33.994Z,15.16
2023-01-28T06:33:25.441Z,13.09
2023-01-28T06:34:17.056Z,13.13
2023-01-28T06:35:08.789Z,13.72
2023-01-28T06:36:03.960Z,12.96
2023-01-28T06:36:55.398Z,12.94
2023-01-28T06:37:47.083Z,13.28
2023-01-28T06:38:38.650Z,12.36
2023-01-28T06:39:33.285Z,11.83
2023-01-28T06:40:25.925Z,11.83
2023-01-28T06:41:17.541Z,12.31
2023-01-28T06:42:09.348Z,12.96
2023-01-28T06:43:01.366Z,12.18
2023-01-28T06:43:53.051Z,12.13
2023-01-28T06:44:44.833Z,12.27
2023-01-28T06:45:36.486Z,12.76
2023-01-28T06:46:28.479Z,12.28
2023-01-28T06:47:20.219Z,12.02
2023-01-28T06:48:11.650Z,11.83
2023-01-28T06:49:03.479Z,12.81
2023-01-28T06:49:55.135Z,11.45
2023-01-28T06:50:47.979Z,12.63
2023-01-28T06:51:39.410Z,12.16
2023-01-28T06:52:30.993Z,11.97
2023-01-28T06:53:22.529Z,12.07
2023-01-28T06:54:15.696Z,11.96
2023-01-28T06:55:07.905Z,12.07
2023-01-28T06:55:59.427Z,11.66
2023-01-28T06:56:50.949Z,12.10
2023-01-28T06:57:42.926Z,14.36
2023-01-28T06:58:35.392Z,17.48
2023-01-28T06:59:27.071Z,17.52
2023-01-28T07:00:19.213Z,16.15
2023-01-28T07:01:10.750Z,14.04
2023-01-28T07:02:02.357Z,13.37
2023-01-28T07:02:56.740Z,14.50
2023-01-28T07:03:48.384Z,13.93
2023-01-28T07:04:40.017Z,12.93
2023-01-28T07:05:32.049Z,14.52
2023-01-28T07:06:23.731Z,14.91
2023-01-28T07:07:15.399Z,13.89
2023-01-28T07:08:07.158Z,12.84
2023-01-28T07:08:58.597Z,12.65
2023-01-28T07:09:50.063Z,12.41
2023-01-28T07:10:41.494Z,12.18
2023-01-28T07:11:33.332Z,12.22
2023-01-28T07:12:24.928Z,11.53
2023-01-28T07:13:16.597Z,11.10
2023-01-28T07:14:08.238Z,11.89
2023-01-28T07:15:00.346Z,13.11
2023-01-28T07:15:51.883Z,13.63
2023-01-28T07:16:43.359Z,12.19
2023-01-28T07:17:35.062Z,12.64
2023-01-28T07:18:26.937Z,12.18
2023-01-28T07:19:18.407Z,12.11
2023-01-28T07:20:13.546Z,12.58
2023-01-28T07:21:05.426Z,12.58
2023-01-28T07:22:00.616Z,12.68
2023-01-28T07:22:52.134Z,13.27
2023-01-28T07:23:43.847Z,12.39
2023-01-28T07:24:35.589Z,12.39
2023-01-28T07:25:27.124Z,12.22
2023-01-28T07:26:19.997Z,12.51
2023-01-28T07:27:11.704Z,11.67
2023-01-28T07:28:03.215Z,13.29
2023-01-28T07:28:54.929Z,15.03
2023-01-28T07:29:46.414Z,14.56
2023-01-28T07:30:37.835Z,13.26
2023-01-28T07:31:29.382Z,13.25
2023-01-28T07:32:21.783Z,12.59
2023-01-28T07:33:13.266Z,12.64
2023-01-28T07:34:04.690Z,13.03
2023-01-28T07:34:56.382Z,12.74
2023-01-28T07:35:47.862Z,12.62
2023-01-28T07:36:39.720Z,12.16
2023-01-28T07:37:31.328Z,12.70
2023-01-28T07:38:23.352Z,11.37
2023-01-28T07:39:14.804Z,11.17
2023-01-28T07:40:07.154Z,11.32
2023-01-28T07:40:58.660Z,12.24
2023-01-28T07:41:50.209Z,12.91
2023-01-28T07:42:57.472Z,13.96
2023-01-28T07:43:49.106Z,13.30
2023-01-28T07:44:41.554Z,13.75
2023-01-28T07:45:33.543Z,13.92
2023-01-28T07:46:25.033Z,13.94
2023-01-28T07:47:16.869Z,13.75
2023-01-28T07:48:11.810Z,12.96
2023-01-28T07:49:03.531Z,13.73
2023-01-28T07:49:54.970Z,14.98
2023-01-28T07:50:48.560Z,13.81
2023-01-28T07:51:40.521Z,13.68
2023-01-28T07:52:38.105Z,13.78
2023-01-28T07:53:29.643Z,13.09
2023-01-28T07:54:21.143Z,13.05
2023-01-28T07:55:15.542Z,12.59
2023-01-28T07:56:07.299Z,12.78
2023-01-28T07:56:58.735Z,12.72
2023-01-28T07:57:52.167Z,12.68
2023-01-28T07:58:43.856Z,13.00
2023-01-28T07:59:36.183Z,12.53
2023-01-28T08:00:30.430Z,12.29
2023-01-28T08:01:22.094Z,13.29
2023-01-28T08:02:14.045Z,13.15
2023-01-28T08:03:12.662Z,12.75
2023-01-28T08:04:04.457Z,12.29
2023-01-28T08:04:59.218Z,12.66
2023-01-28T08:05:53.905Z,12.74
2023-01-28T08:06:45.433Z,12.65
2023-01-28T08:07:37.883Z,12.48
2023-01-28T08:08:29.506Z,12.19
2023-01-28T08:09:20.954Z,11.60
2023-01-28T08:10:13.676Z,12.19
2023-01-28T08:11:11.708Z,12.77
2023-01-28T08:12:03.487Z,12.67
2023-01-28T08:12:57.128Z,12.95
2023-01-28T08:13:49.232Z,13.73
2023-01-28T08:14:40.659Z,13.91
2023-01-28T08:15:35.051Z,17.34
2023-01-28T08:16:28.867Z,26.35
2023-01-28T08:17:20.405Z,26.04
2023-01-28T08:18:14.469Z,25.10
2023-01-28T08:19:06.524Z,21.64
2023-01-28T08:19:58.168Z,18.59
2023-01-28T08:20:49.844Z,16.64
2023-01-28T08:21:41.554Z,15.48
2023-01-28T08:22:33.262Z,14.16
2023-01-28T08:23:27.070Z,14.33
2023-01-28T08:24:18.867Z,13.83
2023-01-28T08:25:10.403Z,13.17
2023-01-28T08:26:02.084Z,12.96
2023-01-28T08:26:53.816Z,14.62
2023-01-28T08:27:45.584Z,16.67
2023-01-28T08:28:37.233Z,15.89
2023-01-28T08:29:29.810Z,15.95
2023-01-28T08:30:22.932Z,16.66
2023-01-28T08:31:14.407Z,15.50
2023-01-28T08:32:05.887Z,13.74
2023-01-28T08:32:59.522Z,15.26
2023-01-28T08:33:51.232Z,16.38
2023-01-28T08:34:42.652Z,15.54
2023-01-28T08:35:35.189Z,12.64
2023-01-28T08:36:26.709Z,12.27
2023-01-28T08:37:18.113Z,10.82
2023-01-28T08:38:12.624Z,10.36
2023-01-28T08:39:04.115Z,9.73
2023-01-28T08:39:55.802Z,10.22
2023-01-28T08:40:47.744Z,10.06
2023-01-28T08:41:39.402Z,9.87
2023-01-28T08:42:31.086Z,10.14
2023-01-28T08:43:22.798Z,9.91
2023-01-28T08:44:14.281Z,9.05
2023-01-28T08:45:06.487Z,9.21
2023-01-28T08:45:58.096Z,10.28
2023-01-28T08:46:49.748Z,8.80
2023-01-28T08:47:54.800Z,8.58
2023-01-28T08:48:46.593Z,9.18
2023-01-28T08:49:38.043Z,8.88
2023-01-28T08:50:33.044Z,9.53
2023-01-28T08:51:25.069Z,9.70
2023-01-28T08:52:16.757Z,9.38
2023-01-28T08:53:15.969Z,8.73
2023-01-28T08:54:07.375Z,9.59
2023-01-28T08:54:59.018Z,9.71
2023-01-28T08:55:50.625Z,8.90
2023-01-28T08:56:45.047Z,8.56
2023-01-28T08:57:36.523Z,8.84
2023-01-28T08:58:27.957Z,9.32
2023-01-28T08:59:19.628Z,9.23
2023-01-28T09:00:12.332Z,9.29
2023-01-28T09:01:10.761Z,8.85
2023-01-28T09:02:02.223Z,8.81
2023-01-28T09:02:54.066Z,8.91
2023-01-28T09:03:45.576Z,9.68
2023-01-28T09:04:37.132Z,8.97
2023-01-28T09:05:30.124Z,9.29
2023-01-28T09:06:21.575Z,8.93
2023-01-28T09:07:12.981Z,9.40
2023-01-28T09:08:07.729Z,9.46
2023-01-28T09:09:00.425Z,9.66
2023-01-28T09:09:51.892Z,10.20
2023-01-28T09:10:43.710Z,9.99
2023-01-28T09:11:35.132Z,9.24
2023-01-28T09:12:27.102Z,9.77
2023-01-28T09:13:18.535Z,9.59
2023-01-28T09:14:10.029Z,8.98
2023-01-28T09:15:01.907Z,9.27
2023-01-28T09:15:53.385Z,9.08
2023-01-28T09:16:45.034Z,9.35
2023-01-28T09:17:37.533Z,9.07
2023-01-28T09:18:28.956Z,9.30
2023-01-28T09:19:27.851Z,10.12
2023-01-28T09:20:19.459Z,9.90
2023-01-28T09:21:11.000Z,9.91
2023-01-28T09:22:06.190Z,9.64
2023-01-28T09:22:59.444Z,9.35
2023-01-28T09:23:50.883Z,9.73
2023-01-28T09:24:42.966Z,9.88
2023-01-28T09:25:36.389Z,10.37
2023-01-28T09:26:27.930Z,11.61
2023-01-28T09:27:19.459Z,11.41
2023-01-28T09:28:11.054Z,11.08
2023-01-28T09:29:02.581Z,10.64
2023-01-28T09:29:54.004Z,10.54
2023-01-28T09:30:45.459Z,10.23
2023-01-28T09:31:36.948Z,10.88
2023-01-28T09:32:28.456Z,10.44
2023-01-28T09:33:20.022Z,10.22
2023-01-28T09:34:11.703Z,10.71
2023-01-28T09:35:03.721Z,11.93
2023-01-28T09:35:55.151Z,10.46
2023-01-28T09:36:47.247Z,11.07
2023-01-28T09:37:38.676Z,12.42
2023-01-28T09:38:30.878Z,12.11
2023-01-28T09:39:22.429Z,11.60
2023-01-28T09:40:40.241Z,11.79
2023-01-28T09:41:58.016Z,10.89
2023-01-28T09:43:25.742Z,10.79
2023-01-28T09:44:54.027Z,10.71
2023-01-28T09:45:49.610Z,10.58
2023-01-28T09:46:45.573Z,10.39
2023-01-28T09:47:46.911Z,11.06
2023-01-28T09:48:45.093Z,10.95
2023-01-28T09:49:48.298Z,11.26
2023-01-28T09:50:45.391Z,11.98
2023-01-28T09:51:52.421Z,11.34
2023-01-28T09:52:45.123Z,11.30
2023-01-28T09:53:47.775Z,11.68
2023-01-28T09:54:58.497Z,11.73
2023-01-28T09:56:00.086Z,11.88
2023-01-28T09:57:05.574Z,11.90
2023-01-28T09:57:57.362Z,12.70
2023-01-28T09:58:48.856Z,11.92
2023-01-28T09:59:40.349Z,11.40
2023-01-28T10:00:58.929Z,11.25
2023-01-28T10:02:04.030Z,11.04
2023-01-28T10:03:28.842Z,10.88
2023-01-28T10:04:35.618Z,12.98
2023-01-28T10:05:46.730Z,11.85
2023-01-28T10:07:00.987Z,12.04
2023-01-28T10:08:15.134Z,11.75
2023-01-28T10:09:38.288Z,12.53
2023-01-28T10:10:50.145Z,12.12
2023-01-28T10:12:09.546Z,12.52
2023-01-28T10:13:21.756Z,13.30
2023-01-28T10:14:45.580Z,12.44
2023-01-28T10:15:42.320Z,12.29
2023-01-28T10:16:49.048Z,11.72
2023-01-28T10:17:50.453Z,11.30
2023-01-28T10:18:47.462Z,11.21
2023-01-28T10:20:11.105Z,10.50
2023-01-28T10:21:23.008Z,10.73
2023-01-28T10:22:35.296Z,11.52
2023-01-28T10:23:40.900Z,11.90
2023-01-28T10:24:36.867Z,12.01
2023-01-28T10:25:32.221Z,11.83
2023-01-28T10:26:33.757Z,10.78
2023-01-28T10:27:30.968Z,10.69
2023-01-28T10:28:30.606Z,11.30
2023-01-28T10:29:30.911Z,11.91
2023-01-28T10:30:38.975Z,12.06
2023-01-28T10:31:39.982Z,11.57
2023-01-28T10:32:42.096Z,11.21
2023-01-28T10:33:38.961Z,11.19
2023-01-28T10:34:30.772Z,13.13
2023-01-28T10:35:24.026Z,12.64
2023-01-28T10:36:19.413Z,12.98
2023-01-28T10:37:15.013Z,13.46
2023-01-28T10:38:13.476Z,12.76
2023-01-28T10:39:06.776Z,13.89
2023-01-28T10:40:00.406Z,13.85
2023-01-28T10:40:57.096Z,14.84
2023-01-28T10:41:57.904Z,13.54
2023-01-28T10:42:49.912Z,12.82
2023-01-28T10:43:50.316Z,12.94
2023-01-28T10:45:08.036Z,13.67
2023-01-28T10:46:18.562Z,14.46
2023-01-28T10:47:16.898Z,12.81
2023-01-28T10:48:23.798Z,13.57
2023-01-28T10:49:22.956Z,13.32
2023-01-28T10:50:22.661Z,13.64
2023-01-28T10:51:15.296Z,12.64
2023-01-28T10:52:14.419Z,12.95
2023-01-28T10:53:06.289Z,13.07
2023-01-28T10:53:57.849Z,13.28
2023-01-28T10:55:04.079Z,14.10
2023-01-28T10:56:24.540Z,14.32
2023-01-28T10:57:21.007Z,14.22
2023-01-28T10:58:27.424Z,13.04
2023-01-28T10:59:27.043Z,11.98
2023-01-28T11:00:31.032Z,12.62
2023-01-28T11:01:22.653Z,13.56
2023-01-28T11:02:32.619Z,14.96
2023-01-28T11:03:29.065Z,12.74
2023-01-28T11:04:31.778Z,13.36
2023-01-28T11:05:29.313Z,15.27
2023-01-28T11:06:26.220Z,15.28
2023-01-28T11:07:21.758Z,15.41
2023-01-28T11:08:16.911Z,14.64
2023-01-28T11:09:31.192Z,16.40
2023-01-28T11:10:37.160Z,16.58
2023-01-28T11:11:29.772Z,17.19
2023-01-28T11:12:25.210Z,17.86
2023-01-28T11:13:17.743Z,18.34
2023-01-28T11:14:22.432Z,19.25
2023-01-28T11:15:18.533Z,19.90
2023-01-28T11:16:19.491Z,19.57
2023-01-28T11:17:19.503Z,19.46
2023-01-28T11:18:22.720Z,19.88
2023-01-28T11:19:15.065Z,20.60
2023-01-28T11:20:26.822Z,19.84
2023-01-28T11:21:26.453Z,20.39
2023-01-28T11:22:38.505Z,20.41
2023-01-28T11:23:41.948Z,21.84
2023-01-28T11:24:35.703Z,19.91
2023-01-28T11:25:36.243Z,20.45
2023-01-28T11:26:55.605Z,19.62
2023-01-28T11:27:53.739Z,18.88
2023-01-28T11:28:46.950Z,19.63
2023-01-28T11:30:10.380Z,18.60
2023-01-28T11:31:07.452Z,17.54
2023-01-28T11:32:01.988Z,19.08
2023-01-28T11:33:03.490Z,19.35
2023-01-28T11:34:01.100Z,20.86
2023-01-28T11:34:57.277Z,20.76
2023-01-28T11:35:58.113Z,19.58
2023-01-28T11:36:53.127Z,20.85
2023-01-28T11:37:48.541Z,20.63
2023-01-28T11:38:52.618Z,20.11
2023-01-28T11:39:44.286Z,19.58
2023-01-28T11:40:35.890Z,19.10
2023-01-28T11:41:31.637Z,19.89
2023-01-28T11:42:24.190Z,19.58
2023-01-28T11:43:15.638Z,19.14
2023-01-28T11:44:13.407Z,19.43
2023-01-28T11:45:15.897Z,18.54
2023-01-28T11:46:34.344Z,18.29
2023-01-28T11:47:45.677Z,18.48
2023-01-28T11:48:58.689Z,20.40
2023-01-28T11:50:03.447Z,19.86
2023-01-28T11:51:10.291Z,20.85
2023-01-28T11:52:23.746Z,21.24
2023-01-28T11:53:40.391Z,21.29
2023-01-28T11:55:04.329Z,20.92
2023-01-28T11:56:01.636Z,21.35
2023-01-28T11:57:12.010Z,21.40
2023-01-28T11:58:27.699Z,20.42
2023-01-28T11:59:43.316Z,20.96
2023-01-28T12:00:41.266Z,19.77
2023-01-28T12:01:51.232Z,20.76
2023-01-28T12:03:20.358Z,21.24
2023-01-28T12:04:17.701Z,21.65
2023-01-28T12:05:27.949Z,23.08
2023-01-28T12:06:41.854Z,22.52
2023-01-28T12:08:01.089Z,22.06
2023-01-28T12:09:15.862Z,21.50
2023-01-28T12:10:19.967Z,19.58
2023-01-28T12:12:03.542Z,21.02
2023-01-28T12:13:25.609Z,21.69
2023-01-28T12:14:23.665Z,20.81
2023-01-28T12:15:45.055Z,20.66
2023-01-28T12:16:42.683Z,21.61
2023-01-28T12:18:12.658Z,20.86
2023-01-28T12:19:29.944Z,21.99
2023-01-28T12:20:45.773Z,21.75
2023-01-28T12:24:28.597Z,20.97
2023-01-28T12:26:20.187Z,21.17
2023-01-28T12:27:55.873Z,21.64
2023-01-28T12:29:13.583Z,21.69
2023-01-28T12:30:37.157Z,20.74
2023-01-28T12:31:45.441Z,21.44
2023-01-28T12:33:11.450Z,20.39
2023-01-28T12:34:22.246Z,20.33
2023-01-28T12:35:35.774Z,22.01
2023-01-28T12:36:56.824Z,21.63
2023-01-28T12:38:14.836Z,21.01